KAMA/AMA METAR and TAF weather

Enter ICAO airport designator
Station Type Date Time Source
KAMA METAR 2022/01/23 11:53 UTC NOAA

KAMA 231153Z 31010KT 10SM CLR M02/M06 A3021 RMK AO2 SLP237 T10171061 10017 21033 58005 $


Station Type Date Time Source
KAMA Decoded METAR 2022/01/23 11:53 UTC NOAA

AMARILLO INTERNATIONAL AIRPORT, TX, United States (KAMA) 35-13N 101-43W 1093M
Jan 23, 2022 - 06:53 AM EST / 2022.01.23 1153 UTC
Wind: from the NW (310 degrees) at 12 MPH (10 KT):0
Visibility: 10 mile(s):0
Sky conditions: clear
Temperature: 28.9 F (-1.7 C)
Windchill: 19 F (-7 C):1
Dew Point: 21.0 F (-6.1 C)
Relative Humidity: 71%
Pressure (altimeter): 30.21 in. Hg (1023 hPa)
Pressure tendency: 0.01 inches (0.5 hPa) lower than three hours ago
ob: KAMA 231153Z 31010KT 10SM CLR M02/M06 A3021 RMK AO2 SLP237 T10171061 10017 21033 58005
cycle: 12

Station Type Date Time Source
KAMA TAF 2022/01/23 12:22 UTC NOAA

TAF KAMA 231120Z 2312/2412 30009KT P6SM SKC
FM231700 34009KT P6SM SKC
FM232300 22008KT P6SM FEW200

Example: see airport list